createdAt,value
2018-08-16T00:00:57.296Z,15.37
2018-08-16T00:03:26.403Z,16.00
2018-08-16T00:05:55.385Z,16.43
2018-08-16T00:08:24.476Z,16.10
2018-08-16T00:10:53.541Z,18.03
2018-08-16T00:13:22.662Z,17.90
2018-08-16T00:15:51.600Z,15.57
2018-08-16T00:18:20.539Z,15.67
2018-08-16T00:20:49.560Z,16.30
2018-08-16T00:23:18.549Z,16.87
2018-08-16T00:25:47.539Z,15.97
2018-08-16T00:28:16.827Z,15.27
2018-08-16T00:30:45.944Z,15.97
2018-08-16T00:33:15.228Z,16.40
2018-08-16T00:35:44.472Z,14.20
2018-08-16T00:38:13.524Z,16.53
2018-08-16T00:40:42.667Z,15.50
2018-08-16T00:43:11.833Z,14.97
2018-08-16T00:45:40.858Z,17.20
2018-08-16T00:48:09.997Z,15.67
2018-08-16T00:50:39.211Z,14.90
2018-08-16T00:53:08.318Z,14.70
2018-08-16T00:55:37.531Z,14.50
2018-08-16T00:58:06.621Z,17.27
2018-08-16T01:00:35.657Z,15.37
2018-08-16T01:03:04.802Z,16.00
2018-08-16T01:05:33.861Z,15.87
2018-08-16T01:08:02.982Z,16.67
2018-08-16T01:10:32.061Z,16.43
2018-08-16T01:13:01.272Z,15.80
2018-08-16T01:15:30.566Z,15.50
2018-08-16T01:17:59.920Z,16.33
2018-08-16T01:20:28.976Z,16.27
2018-08-16T01:22:58.168Z,14.83
2018-08-16T01:25:27.361Z,16.40
2018-08-16T01:27:56.558Z,17.13
2018-08-16T01:30:25.533Z,15.23
2018-08-16T01:32:54.735Z,17.10
2018-08-16T01:35:23.967Z,16.57
2018-08-16T01:37:53.275Z,16.80
2018-08-16T01:40:22.607Z,16.93
2018-08-16T01:42:51.584Z,15.47
2018-08-16T01:45:20.626Z,16.37
2018-08-16T01:47:49.797Z,15.97
2018-08-16T01:50:18.793Z,15.60
2018-08-16T01:52:47.799Z,14.90
2018-08-16T01:55:16.797Z,15.23
2018-08-16T01:57:45.950Z,16.10
2018-08-16T02:00:15.423Z,14.97
2018-08-16T02:02:44.570Z,16.37
2018-08-16T02:05:13.675Z,17.20
2018-08-16T02:07:42.970Z,16.30
2018-08-16T02:10:12.006Z,14.87
2018-08-16T02:12:41.156Z,15.87
2018-08-16T02:15:11.854Z,15.00
2018-08-16T02:17:41.167Z,15.23
2018-08-16T02:20:12.334Z,14.30
2018-08-16T02:22:41.575Z,14.60
2018-08-16T02:25:10.886Z,16.23
2018-08-16T02:27:40.236Z,16.13
2018-08-16T02:30:09.692Z,15.73
2018-08-16T02:32:39.293Z,16.23
2018-08-16T02:35:08.713Z,16.00
2018-08-16T02:37:38.879Z,15.90
2018-08-16T02:40:08.397Z,15.90
2018-08-16T02:42:37.933Z,15.90
2018-08-16T02:45:07.051Z,14.90
2018-08-16T02:47:37.238Z,15.27
2018-08-16T02:50:06.737Z,14.50
2018-08-16T02:52:35.903Z,14.37
2018-08-16T02:55:05.461Z,16.10
2018-08-16T02:57:34.473Z,16.00
2018-08-16T03:00:04.412Z,15.73
2018-08-16T03:02:33.535Z,15.63
2018-08-16T03:05:02.620Z,16.23
2018-08-16T03:07:31.934Z,16.50
2018-08-16T03:10:00.960Z,17.20
2018-08-16T03:12:29.958Z,16.00
2018-08-16T03:14:58.948Z,17.20
2018-08-16T03:17:28.146Z,16.67
2018-08-16T03:19:57.311Z,17.10
2018-08-16T03:22:26.461Z,15.43
2018-08-16T03:24:55.464Z,16.60
2018-08-16T03:27:24.675Z,16.60
2018-08-16T03:29:53.731Z,16.10
2018-08-16T03:32:22.738Z,14.53
2018-08-16T03:34:52.197Z,16.13
2018-08-16T03:37:21.408Z,15.30
2018-08-16T03:39:50.466Z,17.17
2018-08-16T03:42:19.455Z,16.80
2018-08-16T03:44:48.426Z,16.33
2018-08-16T03:47:17.846Z,18.00
2018-08-16T03:49:46.882Z,17.80
2018-08-16T03:52:16.084Z,16.20
2018-08-16T03:54:45.919Z,16.70
2018-08-16T03:57:15.209Z,17.50
2018-08-16T03:59:44.403Z,16.83
2018-08-16T04:02:13.423Z,17.53
2018-08-16T04:04:42.649Z,18.07
2018-08-16T04:07:11.740Z,18.57
2018-08-16T04:09:40.897Z,18.30
2018-08-16T04:12:10.173Z,16.80
2018-08-16T04:14:39.995Z,17.80
2018-08-16T04:17:09.484Z,16.40
2018-08-16T04:19:38.873Z,17.03
2018-08-16T04:22:07.914Z,17.57
2018-08-16T04:24:37.093Z,18.27
2018-08-16T04:27:06.275Z,18.90
2018-08-16T04:29:35.529Z,16.80
2018-08-16T04:32:04.706Z,17.33
2018-08-16T04:34:33.980Z,19.80
2018-08-16T04:37:03.050Z,18.40
2018-08-16T04:39:32.279Z,17.30
2018-08-16T04:42:01.561Z,18.30
2018-08-16T04:44:30.595Z,19.10
2018-08-16T04:46:59.599Z,17.67
2018-08-16T04:49:29.789Z,19.70
2018-08-16T04:51:58.954Z,18.50
2018-08-16T04:54:28.021Z,18.10
2018-08-16T04:56:57.205Z,19.30
2018-08-16T04:59:26.302Z,20.43
2018-08-16T05:01:55.388Z,16.80
2018-08-16T05:04:24.532Z,18.23
2018-08-16T05:06:54.065Z,20.13
2018-08-16T05:09:24.175Z,19.43
2018-08-16T05:11:53.202Z,18.73
2018-08-16T05:14:22.432Z,19.70
2018-08-16T05:16:51.866Z,19.30
2018-08-16T05:19:21.025Z,18.70
2018-08-16T05:21:50.629Z,17.27
2018-08-16T05:24:20.885Z,17.60
2018-08-16T05:26:50.018Z,17.77
2018-08-16T05:29:20.318Z,18.93
2018-08-16T05:31:49.341Z,17.53
2018-08-16T05:34:18.366Z,16.37
2018-08-16T05:36:47.539Z,17.30
2018-08-16T05:39:16.775Z,17.20
2018-08-16T05:41:45.835Z,17.70
2018-08-16T05:44:15.066Z,17.60
2018-08-16T05:46:44.352Z,18.27
2018-08-16T05:49:13.811Z,17.97
2018-08-16T05:51:44.061Z,17.90
2018-08-16T05:54:13.255Z,17.87
2018-08-16T05:56:42.463Z,17.47
2018-08-16T05:59:11.699Z,17.87
2018-08-16T06:01:40.901Z,16.67
2018-08-16T06:04:10.214Z,17.60
2018-08-16T06:06:39.490Z,16.97
2018-08-16T06:09:10.407Z,18.63
2018-08-16T06:11:39.589Z,16.50
2018-08-16T06:14:09.972Z,17.07
2018-08-16T06:16:39.174Z,16.27
2018-08-16T06:19:08.341Z,16.70
2018-08-16T06:21:37.529Z,17.17
2018-08-16T06:24:06.796Z,17.03
2018-08-16T06:26:35.976Z,16.90
2018-08-16T06:29:05.083Z,16.93
2018-08-16T06:31:34.134Z,18.67
2018-08-16T06:34:03.467Z,17.17
2018-08-16T06:36:32.609Z,16.83
2018-08-16T06:39:01.719Z,16.80
2018-08-16T06:41:30.818Z,17.60
2018-08-16T06:43:59.846Z,16.33
2018-08-16T06:46:28.909Z,17.43
2018-08-16T06:48:58.011Z,16.77
2018-08-16T06:51:27.117Z,18.00
2018-08-16T06:53:56.245Z,16.37
2018-08-16T06:56:25.288Z,16.57
2018-08-16T06:58:54.417Z,17.60
2018-08-16T07:01:23.468Z,17.60
2018-08-16T07:03:52.693Z,17.57
2018-08-16T07:06:21.730Z,17.73
2018-08-16T07:08:50.883Z,17.30
2018-08-16T07:11:19.882Z,15.73
2018-08-16T07:13:48.983Z,16.57
2018-08-16T07:16:18.134Z,17.27
2018-08-16T07:18:47.397Z,16.17
2018-08-16T07:21:16.423Z,16.27
2018-08-16T07:23:45.545Z,16.00
2018-08-16T07:26:14.563Z,16.50
2018-08-16T07:28:43.748Z,16.03
2018-08-16T07:31:13.058Z,14.87
2018-08-16T07:33:42.474Z,16.57
2018-08-16T07:36:11.517Z,15.43
2018-08-16T07:38:40.971Z,14.53
2018-08-16T07:41:10.086Z,15.57
2018-08-16T07:43:39.098Z,15.43
2018-08-16T07:46:08.307Z,15.87
2018-08-16T07:48:37.279Z,16.70
2018-08-16T07:51:06.450Z,15.70
2018-08-16T07:53:35.489Z,15.70
2018-08-16T07:56:04.500Z,15.60
2018-08-16T07:58:33.578Z,16.20
2018-08-16T08:01:02.533Z,15.20
2018-08-16T08:03:31.598Z,15.00
2018-08-16T08:06:01.065Z,14.60
2018-08-16T08:08:30.290Z,15.43
2018-08-16T08:10:59.282Z,16.23
2018-08-16T08:13:28.526Z,15.43
2018-08-16T08:15:57.552Z,15.27
2018-08-16T08:18:26.722Z,15.07
2018-08-16T08:20:55.730Z,14.63
2018-08-16T08:23:24.733Z,16.67
2018-08-16T08:25:53.740Z,16.40
2018-08-16T08:28:22.911Z,15.40
2018-08-16T08:30:51.918Z,15.60
2018-08-16T08:33:21.121Z,15.57
2018-08-16T08:36:01.927Z,14.73
2018-08-16T08:38:31.114Z,15.00
2018-08-16T08:41:00.228Z,15.40
2018-08-16T08:43:40.541Z,15.23
2018-08-16T08:46:09.815Z,15.80
2018-08-16T08:48:38.826Z,15.57
2018-08-16T08:51:07.824Z,15.90
2018-08-16T08:54:56.809Z,14.70
2018-08-16T08:57:37.898Z,14.07
2018-08-16T09:00:08.474Z,13.30
2018-08-16T09:02:37.557Z,15.60
2018-08-16T09:05:06.820Z,12.83
2018-08-16T09:07:36.005Z,12.23
2018-08-16T09:10:45.345Z,12.67
2018-08-16T09:13:25.970Z,13.13
2018-08-16T09:15:55.009Z,13.20
2018-08-16T09:18:24.023Z,13.60
2018-08-16T09:20:53.137Z,11.40
2018-08-16T09:23:22.243Z,12.40
2018-08-16T09:25:51.486Z,11.97
2018-08-16T09:28:20.503Z,12.63
2018-08-16T09:31:00.823Z,13.27
2018-08-16T09:33:41.866Z,12.50
2018-08-16T09:36:10.934Z,12.53
2018-08-16T09:38:40.107Z,11.50
2018-08-16T09:41:09.342Z,12.17
2018-08-16T09:43:38.604Z,11.97
2018-08-16T09:46:45.796Z,12.10
2018-08-16T09:49:15.606Z,13.03
2018-08-16T09:51:45.966Z,13.17
2018-08-16T09:54:16.209Z,12.97
2018-08-16T09:56:46.078Z,12.20
2018-08-16T09:59:15.447Z,10.47
2018-08-16T10:01:44.625Z,11.77
2018-08-16T10:04:15.849Z,10.83
2018-08-16T10:06:45.587Z,11.10
2018-08-16T10:09:17.720Z,10.20
2018-08-16T10:11:47.349Z,11.00
2018-08-16T10:14:16.721Z,10.93
2018-08-16T10:16:45.820Z,10.40
2018-08-16T10:19:14.945Z,10.23
2018-08-16T10:21:44.041Z,10.60
2018-08-16T10:24:13.456Z,8.60
2018-08-16T10:26:42.533Z,8.20
2018-08-16T10:29:12.169Z,8.33
2018-08-16T10:31:41.583Z,8.60
2018-08-16T10:34:10.672Z,9.90
2018-08-16T10:36:40.830Z,8.30
2018-08-16T10:39:12.383Z,8.30
2018-08-16T10:41:41.802Z,7.90
2018-08-16T10:44:11.264Z,7.77
2018-08-16T10:46:40.259Z,7.93
2018-08-16T10:49:09.505Z,7.27
2018-08-16T10:51:38.650Z,6.90
2018-08-16T10:54:07.725Z,7.30
2018-08-16T10:56:36.912Z,7.63
2018-08-16T10:59:06.222Z,7.60
2018-08-16T11:01:35.207Z,6.37
2018-08-16T11:04:04.595Z,7.10
2018-08-16T11:06:34.730Z,7.43
2018-08-16T11:09:05.843Z,8.30
2018-08-16T11:11:35.393Z,7.70
2018-08-16T11:14:04.611Z,7.63
2018-08-16T11:16:33.673Z,7.17
2018-08-16T11:19:03.777Z,7.50
2018-08-16T11:21:32.753Z,7.43
2018-08-16T11:24:01.976Z,7.97
2018-08-16T11:26:31.188Z,7.10
2018-08-16T11:29:00.339Z,7.03
2018-08-16T11:31:29.338Z,6.97
2018-08-16T11:33:58.553Z,7.87
2018-08-16T11:36:27.767Z,7.60
2018-08-16T11:38:56.969Z,8.37
2018-08-16T11:41:26.082Z,7.10
2018-08-16T11:43:55.119Z,7.23
2018-08-16T11:46:24.173Z,8.03
2018-08-16T11:48:53.776Z,7.87
2018-08-16T11:51:23.981Z,7.40
2018-08-16T11:53:53.157Z,8.70
2018-08-16T11:56:22.425Z,9.43
2018-08-16T11:58:51.478Z,8.07
2018-08-16T12:01:20.611Z,8.00
2018-08-16T12:03:49.737Z,9.17
2018-08-16T12:06:18.948Z,10.17
2018-08-16T12:08:47.984Z,8.90
2018-08-16T12:11:17.271Z,9.80
2018-08-16T12:13:46.535Z,10.87
2018-08-16T12:16:15.696Z,9.80
2018-08-16T12:18:44.781Z,9.87
2018-08-16T12:21:13.898Z,9.10
2018-08-16T12:23:43.103Z,10.40
2018-08-16T12:26:12.333Z,8.37
2018-08-16T12:28:41.602Z,9.10
2018-08-16T12:31:10.646Z,10.43
2018-08-16T12:33:39.905Z,8.07
2018-08-16T12:36:09.051Z,8.77
2018-08-16T12:38:38.035Z,9.80
2018-08-16T12:41:07.085Z,9.87
2018-08-16T12:43:36.748Z,10.03
2018-08-16T12:46:05.848Z,9.50
2018-08-16T12:48:35.871Z,10.53
2018-08-16T12:51:05.289Z,9.43
2018-08-16T12:53:35.426Z,10.07
2018-08-16T12:56:04.418Z,10.67
2018-08-16T12:58:33.819Z,11.03
2018-08-16T13:01:03.033Z,8.80
2018-08-16T13:03:32.137Z,9.90
2018-08-16T13:06:01.271Z,10.47
2018-08-16T13:08:30.367Z,9.80
2018-08-16T13:10:59.484Z,9.47
2018-08-16T13:13:28.646Z,8.60
2018-08-16T13:15:57.928Z,8.53
2018-08-16T13:18:27.073Z,8.20
2018-08-16T13:20:56.091Z,8.77
2018-08-16T13:23:25.397Z,9.50
2018-08-16T13:25:54.374Z,9.77
2018-08-16T13:28:23.452Z,9.70
2018-08-16T13:30:52.673Z,9.63
2018-08-16T13:33:21.689Z,9.60
2018-08-16T13:35:50.939Z,9.37
2018-08-16T13:38:21.152Z,10.00
2018-08-16T13:40:50.224Z,9.33
2018-08-16T13:43:19.493Z,10.30
2018-08-16T13:45:48.865Z,9.77
2018-08-16T13:48:18.096Z,9.03
2018-08-16T13:50:47.189Z,9.20
2018-08-16T13:53:16.204Z,9.40
2018-08-16T13:55:45.455Z,10.43
2018-08-16T13:58:14.755Z,10.03
2018-08-16T14:00:43.929Z,11.53
2018-08-16T14:03:13.071Z,9.93
2018-08-16T14:05:43.440Z,10.30
2018-08-16T14:08:12.661Z,10.80
2018-08-16T14:10:41.776Z,10.13
2018-08-16T14:13:11.011Z,9.47
2018-08-16T14:15:40.213Z,11.13
2018-08-16T14:18:09.403Z,10.10
2018-08-16T14:20:38.457Z,9.33
2018-08-16T14:23:07.625Z,11.90
2018-08-16T14:25:36.806Z,10.90
2018-08-16T14:28:06.003Z,9.80
2018-08-16T14:30:35.086Z,10.53
2018-08-16T14:33:04.123Z,12.60
2018-08-16T14:35:34.450Z,16.37
2018-08-16T14:38:04.204Z,10.80
2018-08-16T14:40:34.696Z,9.90
2018-08-16T14:43:03.772Z,12.57
2018-08-16T14:45:33.490Z,11.20
2018-08-16T14:48:07.995Z,11.27
2018-08-16T14:50:38.509Z,10.60
2018-08-16T14:53:08.244Z,9.80
2018-08-16T14:55:37.503Z,11.60
2018-08-16T14:58:08.195Z,10.33
2018-08-16T15:00:37.335Z,11.60
2018-08-16T15:03:06.529Z,10.17
2018-08-16T15:05:35.921Z,9.57
2018-08-16T15:08:05.232Z,11.00
2018-08-16T15:10:34.475Z,10.53
2018-08-16T15:13:03.687Z,10.10
2018-08-16T15:15:32.883Z,10.50
2018-08-16T15:18:02.363Z,10.57
2018-08-16T15:20:31.610Z,11.70
2018-08-16T15:23:00.710Z,10.30
2018-08-16T15:25:30.059Z,10.87
2018-08-16T15:28:00.247Z,10.37
2018-08-16T15:30:29.662Z,9.93
2018-08-16T15:32:59.916Z,12.27
2018-08-16T15:35:29.142Z,11.77
2018-08-16T15:37:58.354Z,11.50
2018-08-16T15:40:27.597Z,11.30
2018-08-16T15:42:57.329Z,12.10
2018-08-16T15:45:26.487Z,10.40
2018-08-16T15:47:55.700Z,10.90
2018-08-16T15:50:24.753Z,12.30
2018-08-16T15:52:54.134Z,12.20
2018-08-16T15:55:23.484Z,11.10
2018-08-16T15:57:52.779Z,11.13
2018-08-16T16:00:22.062Z,11.27
2018-08-16T16:02:51.375Z,12.10
2018-08-16T16:05:20.694Z,13.60
2018-08-16T16:07:50.137Z,12.77
2018-08-16T16:10:19.942Z,12.87
2018-08-16T16:12:49.158Z,11.57
2018-08-16T16:15:18.571Z,11.73
2018-08-16T16:17:47.848Z,10.90
2018-08-16T16:20:17.051Z,11.73
2018-08-16T16:22:46.361Z,13.73
2018-08-16T16:25:15.459Z,14.17
2018-08-16T16:27:44.573Z,12.97
2018-08-16T16:30:13.742Z,12.63
2018-08-16T16:32:43.857Z,13.00
2018-08-16T16:35:12.966Z,15.80
2018-08-16T16:37:42.269Z,14.37
2018-08-16T16:40:12.534Z,17.73
2018-08-16T16:42:41.775Z,14.20
2018-08-16T16:45:10.956Z,21.37
2018-08-16T16:47:39.982Z,13.30
2018-08-16T16:50:09.979Z,15.53
2018-08-16T16:52:40.075Z,13.20
2018-08-16T16:55:09.182Z,13.27
2018-08-16T16:57:38.456Z,12.73
2018-08-16T17:00:08.727Z,12.97
2018-08-16T17:02:38.005Z,13.87
2018-08-16T17:05:07.345Z,13.87
2018-08-16T17:07:36.725Z,13.40
2018-08-16T17:10:08.543Z,14.27
2018-08-16T17:12:37.601Z,13.37
2018-08-16T17:15:07.110Z,13.73
2018-08-16T17:17:37.410Z,14.27
2018-08-16T17:20:07.108Z,16.30
2018-08-16T17:22:36.345Z,15.70
2018-08-16T17:25:05.953Z,13.00
2018-08-16T17:27:35.306Z,13.60
2018-08-16T17:30:05.478Z,13.17
2018-08-16T17:32:34.665Z,14.13
2018-08-16T17:35:03.869Z,14.67
2018-08-16T17:37:33.155Z,17.30
2018-08-16T17:40:02.584Z,18.93
2018-08-16T17:42:31.760Z,14.80
2018-08-16T17:45:01.038Z,14.40
2018-08-16T17:47:30.221Z,14.23
2018-08-16T17:49:59.440Z,15.43
2018-08-16T17:52:28.631Z,31.23
2018-08-16T17:54:58.122Z,16.37
2018-08-16T17:57:27.166Z,15.43
2018-08-16T17:59:56.349Z,17.53
2018-08-16T18:02:25.510Z,18.40
2018-08-16T18:04:54.710Z,16.73
2018-08-16T18:07:23.786Z,18.33
2018-08-16T18:09:53.379Z,22.87
2018-08-16T18:12:22.557Z,20.03
2018-08-16T18:14:52.009Z,17.17
2018-08-16T18:17:21.096Z,17.73
2018-08-16T18:19:50.274Z,18.97
2018-08-16T18:22:20.357Z,18.10
2018-08-16T18:24:50.516Z,19.30
2018-08-16T18:27:19.671Z,17.40
2018-08-16T18:29:48.802Z,19.10
2018-08-16T18:32:17.925Z,19.10
2018-08-16T18:34:48.863Z,18.67
2018-08-16T18:37:17.922Z,21.97
2018-08-16T18:39:46.984Z,20.17
2018-08-16T18:42:16.209Z,20.77
2018-08-16T18:44:45.351Z,20.40
2018-08-16T18:47:14.437Z,20.70
2018-08-16T18:49:44.536Z,20.80
2018-08-16T18:52:13.625Z,20.17
2018-08-16T18:54:43.465Z,20.57
2018-08-16T18:57:12.579Z,19.10
2018-08-16T18:59:41.752Z,20.03
2018-08-16T19:02:10.897Z,19.10
2018-08-16T19:04:39.934Z,19.47
2018-08-16T19:07:08.974Z,19.40
2018-08-16T19:09:38.131Z,21.70
2018-08-16T19:12:07.585Z,22.07
2018-08-16T19:14:37.079Z,21.37
2018-08-16T19:17:06.247Z,19.23
2018-08-16T19:19:35.450Z,18.43
2018-08-16T19:22:04.817Z,18.73
2018-08-16T19:24:34.012Z,20.10
2018-08-16T19:27:04.282Z,19.00
2018-08-16T19:29:34.431Z,19.73
2018-08-16T19:32:03.472Z,18.17
2018-08-16T19:34:32.544Z,18.50
2018-08-16T19:37:01.768Z,19.47
2018-08-16T19:39:30.938Z,17.97
2018-08-16T19:42:00.428Z,20.00
2018-08-16T19:44:29.667Z,19.87
2018-08-16T19:47:00.657Z,19.67
2018-08-16T19:49:29.650Z,19.90
2018-08-16T19:51:58.836Z,20.60
2018-08-16T19:54:28.093Z,21.30
2018-08-16T19:56:57.536Z,21.60
2018-08-16T19:59:27.065Z,19.83
2018-08-16T20:01:56.536Z,21.43
2018-08-16T20:04:25.853Z,22.50
2018-08-16T20:06:54.841Z,22.23
2018-08-16T20:09:23.903Z,22.60
2018-08-16T20:11:53.021Z,21.83
2018-08-16T20:14:22.214Z,23.00
2018-08-16T20:16:51.223Z,19.70
2018-08-16T20:19:20.381Z,20.80
2018-08-16T20:21:49.419Z,19.33
2018-08-16T20:24:18.470Z,20.90
2018-08-16T20:26:47.518Z,22.93
2018-08-16T20:29:16.768Z,22.70
2018-08-16T20:31:45.855Z,22.77
2018-08-16T20:34:15.036Z,21.33
2018-08-16T20:36:44.023Z,19.77
2018-08-16T20:39:13.210Z,18.90
2018-08-16T20:41:42.398Z,20.03
2018-08-16T20:44:11.497Z,20.07
2018-08-16T20:46:40.719Z,19.93
2018-08-16T20:49:09.861Z,20.47
2018-08-16T20:51:39.012Z,20.60
2018-08-16T20:54:08.340Z,21.30
2018-08-16T20:56:37.481Z,20.63
2018-08-16T20:59:06.570Z,18.93
2018-08-16T21:01:35.808Z,19.67
2018-08-16T21:04:04.879Z,21.33
2018-08-16T21:06:33.910Z,21.80
2018-08-16T21:09:03.055Z,20.40
2018-08-16T21:11:32.151Z,19.50
2018-08-16T21:14:01.161Z,20.20
2018-08-16T21:16:30.197Z,20.67
2018-08-16T21:18:59.262Z,21.67
2018-08-16T21:21:28.269Z,23.20
2018-08-16T21:23:57.299Z,21.70
2018-08-16T21:26:26.501Z,22.87
2018-08-16T21:28:55.576Z,21.50
2018-08-16T21:31:25.740Z,21.50
2018-08-16T21:33:54.855Z,22.63
2018-08-16T21:36:23.863Z,20.57
2018-08-16T21:38:52.921Z,21.73
2018-08-16T21:41:21.907Z,23.87
2018-08-16T21:43:50.946Z,24.73
2018-08-16T21:46:20.046Z,22.97
2018-08-16T21:48:49.347Z,22.33
2018-08-16T21:51:18.571Z,26.40
2018-08-16T21:53:47.578Z,24.70
2018-08-16T21:56:16.758Z,25.13
2018-08-16T21:58:45.875Z,25.57
2018-08-16T22:01:16.043Z,26.80
2018-08-16T22:03:45.202Z,27.50
2018-08-16T22:06:25.738Z,27.33
2018-08-16T22:08:54.799Z,27.27
2018-08-16T22:11:23.777Z,30.10
2018-08-16T22:13:52.812Z,30.93
2018-08-16T22:16:21.795Z,31.90
2018-08-16T22:18:51.120Z,32.43
2018-08-16T22:21:20.178Z,33.03
2018-08-16T22:23:49.325Z,31.23
2018-08-16T22:26:18.770Z,31.60
2018-08-16T22:28:47.641Z,29.20
2018-08-16T22:31:16.644Z,33.27
2018-08-16T22:33:45.610Z,31.60
2018-08-16T22:36:14.750Z,32.27
2018-08-16T22:38:43.954Z,32.83
2018-08-16T22:41:13.106Z,32.33
2018-08-16T22:43:42.191Z,31.97
2018-08-16T22:46:11.201Z,31.90
2018-08-16T22:48:40.181Z,31.30
2018-08-16T22:51:09.186Z,32.13
2018-08-16T22:53:38.240Z,31.77
2018-08-16T22:56:07.770Z,29.47
2018-08-16T22:58:36.761Z,30.80
2018-08-16T23:01:05.744Z,31.80
2018-08-16T23:03:34.733Z,31.20
2018-08-16T23:06:03.736Z,28.57
2018-08-16T23:08:32.866Z,29.47
2018-08-16T23:11:01.883Z,28.97
2018-08-16T23:13:31.085Z,27.50
2018-08-16T23:16:00.096Z,30.27
2018-08-16T23:18:29.270Z,26.97
2018-08-16T23:20:58.407Z,28.13
2018-08-16T23:23:27.414Z,27.40
2018-08-16T23:25:56.411Z,27.50
2018-08-16T23:28:25.435Z,27.50
2018-08-16T23:30:54.525Z,27.40
2018-08-16T23:33:23.597Z,27.57
2018-08-16T23:35:52.642Z,26.87
2018-08-16T23:38:21.633Z,26.07
2018-08-16T23:40:50.686Z,26.70
2018-08-16T23:43:19.690Z,26.57
2018-08-16T23:45:49.748Z,26.23
2018-08-16T23:48:29.127Z,26.90
2018-08-16T23:50:58.872Z,28.00
2018-08-16T23:53:28.120Z,27.40
2018-08-16T23:55:57.346Z,27.70
2018-08-16T23:58:26.480Z,26.73
